Time;durP1;ratioP1;P1;durP2;ratioP2;P2;SDS_P1;SDS_P2;PMS_P1;PMS_P2;Temp;Humidity;BMP_temperature;BMP_pressure;BME280_temperature;BME280_humidity;BME280_pressure;Samples;Min_cycle;Max_cycle;Signal;HPM_P1;HPM_P2
2023/03/19 00:00:26;;;;;;;7.75;6.25;;;;;;;10.32;84.30;97831.28;4967485;28;20039;-85
2023/03/19 00:02:53;;;;;;;7.75;5.95;;;;;;;10.20;84.22;97817.16;4944069;28;20039;-86
2023/03/19 00:05:19;;;;;;;7.43;5.68;;;;;;;10.25;84.20;97832.28;4937908;28;20097;-85
2023/03/19 00:07:45;;;;;;;8.95;5.82;;;;;;;10.16;83.91;97822.00;4963608;28;20047;-85
2023/03/19 00:10:12;;;;;;;10.57;5.97;;;;;;;10.07;84.64;97825.81;4956129;28;20045;-86
2023/03/19 00:12:38;;;;;;;6.97;5.65;;;;;;;10.08;85.55;97816.16;4973720;28;20031;-85
2023/03/19 00:15:07;;;;;;;7.93;5.55;;;;;;;10.03;86.34;97839.56;4955962;28;20117;-85
2023/03/19 00:17:34;;;;;;;8.45;5.93;;;;;;;10.08;86.73;97837.94;4935884;29;20067;-85
2023/03/19 00:20:00;;;;;;;8.18;5.60;;;;;;;10.00;87.23;97829.47;4958466;28;20058;-85
2023/03/19 00:22:27;;;;;;;7.68;6.13;;;;;;;10.00;87.54;97834.69;4969499;28;20034;-85
2023/03/19 00:24:53;;;;;;;8.85;5.65;;;;;;;10.02;87.43;97836.13;4971861;28;20051;-85
2023/03/19 00:27:19;;;;;;;8.15;6.13;;;;;;;9.92;87.46;97825.22;4968767;28;20094;-86
2023/03/19 00:29:45;;;;;;;8.05;6.15;;;;;;;9.70;87.88;97827.22;4968037;28;20069;-85
2023/03/19 00:32:12;;;;;;;8.93;6.03;;;;;;;9.86;88.81;97842.56;4969634;28;20043;-86
2023/03/19 00:34:38;;;;;;;8.93;6.47;;;;;;;9.80;88.76;97848.59;4947883;29;20057;-86
2023/03/19 00:37:04;;;;;;;9.90;5.95;;;;;;;9.68;88.84;97829.25;4952262;28;20046;-85
2023/03/19 00:39:31;;;;;;;6.45;5.55;;;;;;;9.57;88.77;97809.69;4942204;28;20058;-86
2023/03/19 00:41:57;;;;;;;6.47;5.75;;;;;;;9.68;88.25;97842.34;4941202;28;20094;-86
2023/03/19 00:44:23;;;;;;;11.40;5.93;;;;;;;9.62;88.63;97835.28;4971705;28;20030;-86
2023/03/19 00:46:50;;;;;;;7.38;5.90;;;;;;;9.51;88.29;97810.50;4959758;28;20051;-86
2023/03/19 00:49:16;;;;;;;8.07;5.75;;;;;;;9.51;88.28;97828.81;4959482;28;20386;-86
2023/03/19 00:51:43;;;;;;;7.88;5.55;;;;;;;9.59;88.79;97840.91;4957200;28;20073;-86
2023/03/19 00:54:12;;;;;;;7.78;5.95;;;;;;;9.49;89.00;97830.03;4933272;28;20074;-85
2023/03/19 00:56:39;;;;;;;8.93;6.03;;;;;;;9.55;88.68;97819.56;4975742;28;20049;-86
2023/03/19 00:59:05;;;;;;;6.22;5.60;;;;;;;9.67;89.37;97847.78;4942402;28;20454;-86
2023/03/19 01:01:32;;;;;;;8.50;5.60;;;;;;;9.60;89.66;97838.13;4976051;28;20043;-86
2023/03/19 01:03:58;;;;;;;8.60;5.68;;;;;;;9.39;89.71;97831.22;4958474;28;20082;-86
2023/03/19 01:06:25;;;;;;;8.02;6.20;;;;;;;9.37;89.95;97816.72;4975309;28;20038;-86
2023/03/19 01:08:51;;;;;;;8.32;6.13;;;;;;;9.53;89.73;97844.31;4969585;28;20490;-86
2023/03/19 01:11:17;;;;;;;8.27;6.20;;;;;;;9.32;90.11;97825.16;4939087;29;20035;-86
2023/03/19 01:13:44;;;;;;;8.40;6.18;;;;;;;9.26;90.66;97812.88;4955026;28;20070;-87
2023/03/19 01:16:10;;;;;;;7.85;6.15;;;;;;;9.26;90.53;97819.91;4938274;28;20097;-86
2023/03/19 01:18:37;;;;;;;10.65;6.82;;;;;;;9.46;91.01;97856.59;4969242;28;20062;-86
2023/03/19 01:21:04;;;;;;;11.82;6.43;;;;;;;9.28;91.76;97844.88;4973153;28;20502;-86
2023/03/19 01:23:30;;;;;;;7.35;5.70;;;;;;;9.34;91.36;97853.75;4958899;28;20053;-86
2023/03/19 01:25:57;;;;;;;8.43;6.00;;;;;;;9.24;91.11;97822.75;4958303;28;20046;-86
2023/03/19 01:28:23;;;;;;;11.00;6.22;;;;;;;9.19;91.12;97834.81;4956778;28;20502;-87
2023/03/19 01:30:49;;;;;;;10.40;6.03;;;;;;;9.31;91.18;97851.53;4963085;28;20047;-86
2023/03/19 01:33:17;;;;;;;8.32;6.07;;;;;;;9.22;91.34;97824.72;4956369;28;20053;-86
2023/03/19 01:35:46;;;;;;;7.28;6.13;;;;;;;9.24;91.71;97833.22;4942786;28;20035;-86
2023/03/19 01:38:13;;;;;;;14.45;7.07;;;;;;;9.38;91.64;97855.78;4956736;28;20043;-86
2023/03/19 01:40:47;;;;;;;7.70;5.82;;;;;;;9.42;92.11;97845.75;4962425;28;20042;-86
2023/03/19 01:43:23;;;;;;;9.10;6.22;;;;;;;9.38;91.90;97855.78;4957741;28;20038;-86
2023/03/19 01:46:03;;;;;;;12.65;6.05;;;;;;;9.09;92.11;97820.28;4941804;28;20058;-86
2023/03/19 01:49:05;;;;;;;10.52;6.53;;;;;;;9.23;93.26;97844.66;4957880;28;20054;-86
2023/03/19 01:51:42;;;;;;;9.30;6.18;;;;;;;9.07;93.39;97824.91;4945323;28;20585;-86
2023/03/19 01:54:14;;;;;;;8.93;5.75;;;;;;;8.96;94.36;97827.28;4942480;28;20046;-86
2023/03/19 01:56:44;;;;;;;7.85;5.97;;;;;;;8.96;94.18;97835.13;4972359;28;20507;-87
2023/03/19 01:59:26;;;;;;;8.65;6.15;;;;;;;8.94;93.71;97843.16;4958118;28;20039;-86
2023/03/19 02:02:12;;;;;;;11.75;6.80;;;;;;;8.80;94.29;97823.16;4970768;28;20046;-86
2023/03/19 02:05:08;;;;;;;10.60;6.40;;;;;;;8.76;94.77;97825.38;4941760;29;20027;-86
2023/03/19 02:07:38;;;;;;;8.20;5.72;;;;;;;8.70;94.88;97825.34;4958386;28;20039;-86
2023/03/19 02:10:12;;;;;;;7.97;6.07;;;;;;;8.84;94.91;97842.72;4969573;28;20066;-86
2023/03/19 02:12:38;;;;;;;9.57;6.10;;;;;;;8.70;94.45;97834.00;4960048;28;20046;-85
2023/03/19 02:15:06;;;;;;;8.73;6.55;;;;;;;8.65;94.88;97844.22;4963129;28;20074;-85
2023/03/19 02:17:33;;;;;;;7.90;6.47;;;;;;;8.57;96.09;97858.25;4975101;28;20046;-85
2023/03/19 02:20:30;;;;;;;9.85;6.55;;;;;;;8.69;96.94;97850.66;4957980;28;20058;-85
2023/03/19 02:23:27;;;;;;;10.15;6.40;;;;;;;8.74;96.73;97840.44;4982153;28;20031;-85
2023/03/19 02:26:12;;;;;;;9.63;6.35;;;;;;;8.84;96.20;97861.81;4957778;28;20035;-86
2023/03/19 02:28:42;;;;;;;8.98;7.30;;;;;;;8.79;96.23;97855.56;4941736;28;20051;-85
2023/03/19 02:31:11;;;;;;;8.60;6.47;;;;;;;8.73;96.26;97841.44;4954117;29;20043;-85
2023/03/19 02:33:38;;;;;;;8.57;6.20;;;;;;;8.82;96.02;97855.19;4945962;28;20039;-86
2023/03/19 02:36:18;;;;;;;10.10;6.22;;;;;;;8.94;95.73;97852.81;4956469;28;20079;-86
2023/03/19 02:38:47;;;;;;;9.40;6.95;;;;;;;8.79;95.01;97839.88;4975021;28;20034;-86
2023/03/19 02:41:13;;;;;;;9.07;6.55;;;;;;;8.91;95.56;97847.97;4974568;28;20057;-85
2023/03/19 02:43:41;;;;;;;9.82;6.85;;;;;;;9.01;95.40;97849.22;4958003;28;20046;-86
2023/03/19 02:46:11;;;;;;;7.35;6.40;;;;;;;8.95;95.41;97870.94;4961808;28;20094;-86
2023/03/19 02:48:38;;;;;;;8.00;6.10;;;;;;;8.92;96.13;97850.38;4960226;28;20442;-86
2023/03/19 02:51:04;;;;;;;10.02;6.63;;;;;;;8.87;95.89;97846.72;4935358;28;20042;-86
2023/03/19 02:53:31;;;;;;;7.93;6.72;;;;;;;8.98;95.06;97864.50;4974416;28;20581;-86
2023/03/19 02:55:57;;;;;;;10.18;6.43;;;;;;;8.92;95.98;97852.19;4956812;28;20082;-86
2023/03/19 02:58:23;;;;;;;9.70;6.90;;;;;;;8.79;95.58;97843.28;4974486;28;20466;-86
2023/03/19 03:00:51;;;;;;;11.43;7.57;;;;;;;8.68;95.71;97843.84;4960152;28;20031;-86
2023/03/19 03:03:17;;;;;;;8.85;6.43;;;;;;;8.64;96.11;97829.56;4972083;28;20093;-86
2023/03/19 03:05:46;;;;;;;10.85;6.45;;;;;;;8.73;95.70;97848.50;4940323;28;20050;-85
2023/03/19 03:08:13;;;;;;;10.23;6.30;;;;;;;8.70;95.67;97836.63;4953637;29;20410;-86
2023/03/19 03:10:39;;;;;;;8.45;6.53;;;;;;;8.90;95.91;97867.28;4936984;29;20030;-86
2023/03/19 03:13:05;;;;;;;9.77;6.07;;;;;;;8.90;95.82;97867.28;4947991;28;20454;-86
2023/03/19 03:15:32;;;;;;;9.40;6.70;;;;;;;8.82;96.26;97858.59;4970027;28;20058;-86
2023/03/19 03:17:58;;;;;;;9.02;6.38;;;;;;;8.69;96.03;97828.94;4972776;28;20386;-87
2023/03/19 03:20:25;;;;;;;9.95;6.82;;;;;;;8.70;95.67;97844.47;4950767;29;20049;-86
2023/03/19 03:22:51;;;;;;;10.40;6.50;;;;;;;8.80;96.44;97854.56;4936382;29;20049;-87
2023/03/19 03:25:17;;;;;;;10.63;6.93;;;;;;;8.73;96.45;97851.91;4936961;29;20047;-86
2023/03/19 03:27:44;;;;;;;9.05;6.68;;;;;;;8.85;95.61;97892.19;4949893;28;20107;-86
2023/03/19 03:30:11;;;;;;;9.30;6.53;;;;;;;8.73;96.62;97867.59;4938610;28;20073;-86
2023/03/19 03:32:39;;;;;;;8.20;6.15;;;;;;;8.76;97.12;97864.59;4951592;28;20413;-86
2023/03/19 03:35:07;;;;;;;7.65;6.00;;;;;;;8.94;96.79;97873.75;4955045;28;20047;-87
2023/03/19 03:37:33;;;;;;;8.38;6.80;;;;;;;8.84;96.34;97885.34;4939505;28;20521;-86
2023/03/19 03:40:02;;;;;;;7.93;6.18;;;;;;;8.90;96.26;97880.34;4973176;28;20046;-86
2023/03/19 03:42:28;;;;;;;8.63;6.28;;;;;;;8.90;96.68;97889.00;4972996;28;20528;-87
2023/03/19 03:44:54;;;;;;;10.60;5.82;;;;;;;8.87;96.00;97884.16;4964442;28;20038;-86
2023/03/19 03:47:21;;;;;;;9.70;6.47;;;;;;;9.04;96.59;97895.09;4968281;28;20066;-86
2023/03/19 03:49:47;;;;;;;11.10;6.00;;;;;;;8.90;96.08;97893.44;4967132;28;20035;-86
2023/03/19 03:52:32;;;;;;;10.13;6.43;;;;;;;9.01;96.15;97900.75;4961059;28;20027;-87
2023/03/19 03:55:00;;;;;;;8.32;6.88;;;;;;;8.84;96.23;97895.00;4953805;29;20591;-86
2023/03/19 03:57:26;;;;;;;7.90;6.82;;;;;;;8.94;96.32;97907.75;4960543;28;20077;-86
2023/03/19 03:59:53;;;;;;;10.80;7.28;;;;;;;8.88;95.89;97905.91;4955546;28;20405;-85
2023/03/19 04:02:20;;;;;;;9.68;6.85;;;;;;;8.83;95.52;97888.97;4972488;28;20043;-86
2023/03/19 04:04:47;;;;;;;9.52;6.72;;;;;;;8.95;96.38;97897.09;4972696;28;20386;-86
2023/03/19 04:07:13;;;;;;;7.95;6.38;;;;;;;8.91;96.32;97887.19;4952211;28;20063;-87
2023/03/19 04:09:42;;;;;;;8.90;6.68;;;;;;;8.91;95.19;97881.97;4957616;28;20039;-87
2023/03/19 04:12:14;;;;;;;9.90;6.82;;;;;;;9.06;95.18;97893.94;4951902;29;20546;-86
2023/03/19 04:14:41;;;;;;;7.60;6.30;;;;;;;9.01;95.06;97896.31;4951620;28;20078;-86
2023/03/19 04:17:07;;;;;;;9.18;6.65;;;;;;;9.07;95.54;97905.19;4969631;28;20034;-86
2023/03/19 04:19:36;;;;;;;9.63;6.38;;;;;;;9.01;96.22;97872.78;4952933;29;20031;-86
2023/03/19 04:22:02;;;;;;;11.73;6.80;;;;;;;9.04;96.25;97874.19;4962606;28;20849;-86
2023/03/19 04:24:29;;;;;;;11.73;6.90;;;;;;;9.16;95.77;97890.94;4972555;28;20101;-86
2023/03/19 04:26:55;;;;;;;8.70;5.97;;;;;;;9.10;94.63;97904.78;4972366;28;20046;-86
2023/03/19 04:29:22;;;;;;;8.82;6.45;;;;;;;9.12;94.84;97908.03;4964428;28;20054;-86
2023/03/19 04:31:50;;;;;;;8.13;6.20;;;;;;;9.22;95.46;97929.41;4972660;28;20089;-86
2023/03/19 04:34:16;;;;;;;11.27;7.15;;;;;;;9.18;95.72;97915.13;4962968;28;20479;-86
2023/03/19 04:36:42;;;;;;;7.50;6.40;;;;;;;9.12;95.37;97908.03;4962261;28;20434;-86
2023/03/19 04:39:09;;;;;;;10.05;6.35;;;;;;;9.21;95.54;97901.63;4963963;28;20039;-86
2023/03/19 04:41:35;;;;;;;9.00;6.78;;;;;;;9.21;94.89;97908.66;4955525;28;21649;-86
2023/03/19 04:44:01;;;;;;;8.93;6.75;;;;;;;9.28;94.91;97925.19;4970489;28;20398;-87
2023/03/19 04:46:28;;;;;;;10.10;6.40;;;;;;;9.10;95.50;97899.56;4964470;28;20093;-86
2023/03/19 04:48:54;;;;;;;9.35;6.93;;;;;;;9.27;95.23;97921.78;4973081;28;20033;-86
2023/03/19 04:51:21;;;;;;;11.95;7.00;;;;;;;9.14;95.11;97915.69;4951848;28;20093;-87
2023/03/19 04:53:48;;;;;;;12.52;6.65;;;;;;;9.19;95.49;97914.09;4955531;28;20045;-87
2023/03/19 04:56:15;;;;;;;9.18;6.70;;;;;;;9.14;95.84;97913.88;4933801;28;20062;-86
2023/03/19 04:58:42;;;;;;;13.18;7.60;;;;;;;9.10;95.39;97899.56;4972634;28;20058;-86
2023/03/19 05:01:08;;;;;;;11.73;7.30;;;;;;;9.20;95.74;97930.59;4968868;28;20069;-86
2023/03/19 05:03:37;;;;;;;8.65;6.43;;;;;;;9.15;96.34;97909.44;4955400;28;20031;-86
2023/03/19 05:06:03;;;;;;;12.38;6.95;;;;;;;9.14;96.21;97924.34;4973093;28;20030;-87
2023/03/19 05:08:29;;;;;;;10.32;6.93;;;;;;;9.14;96.49;97929.56;4972384;28;20035;-86
2023/03/19 05:10:56;;;;;;;9.80;7.22;;;;;;;9.17;96.64;97923.94;4958249;28;20066;-86
2023/03/19 05:13:22;;;;;;;12.13;6.80;;;;;;;9.08;96.16;97912.84;4947639;29;20038;-87
2023/03/19 05:15:54;;;;;;;10.88;6.70;;;;;;;9.25;95.98;97931.66;4947600;28;20080;-87
2023/03/19 05:18:21;;;;;;;11.23;7.57;;;;;;;9.14;96.64;97941.84;4970669;28;20034;-86
2023/03/19 05:20:47;;;;;;;10.32;6.55;;;;;;;9.22;96.10;97955.56;4967559;28;20061;-86
2023/03/19 05:23:13;;;;;;;7.80;6.05;;;;;;;9.39;96.53;97959.47;4970119;28;20042;-86
2023/03/19 05:25:40;;;;;;;8.90;5.82;;;;;;;9.21;96.66;97922.56;4963283;28;20027;-86
2023/03/19 05:28:07;;;;;;;8.98;6.90;;;;;;;9.46;96.85;97966.53;4949206;28;20098;-86
2023/03/19 05:30:34;;;;;;;8.68;5.95;;;;;;;9.44;96.68;97955.47;4970017;28;20035;-87
2023/03/19 05:33:01;;;;;;;10.40;7.07;;;;;;;9.41;95.38;97968.94;4963252;28;20042;-86
2023/03/19 05:35:29;;;;;;;9.57;6.90;;;;;;;9.16;94.86;97924.13;4939200;29;20590;-87
2023/03/19 05:37:55;;;;;;;10.43;7.25;;;;;;;9.31;94.77;97964.88;4963121;28;20031;-86
2023/03/19 05:40:22;;;;;;;8.68;6.60;;;;;;;9.22;93.45;97934.63;4948524;28;20043;-84
2023/03/19 05:42:49;;;;;;;11.25;7.13;;;;;;;9.30;95.85;97947.56;4950564;28;20031;-86
2023/03/19 05:45:16;;;;;;;10.75;7.38;;;;;;;9.28;96.28;97941.72;4976046;28;20030;-86
2023/03/19 05:47:47;;;;;;;10.43;7.05;;;;;;;9.37;95.65;97944.97;4983769;28;20050;-86
2023/03/19 05:50:14;;;;;;;14.07;8.70;;;;;;;9.55;94.50;97970.63;4971767;28;20063;-86
2023/03/19 05:52:53;;;;;;;9.57;7.95;;;;;;;9.30;94.42;97978.19;4975093;28;20054;-85
2023/03/19 05:55:19;;;;;;;11.98;7.18;;;;;;;8.88;99.88;97987.00;4970880;28;20058;-86
2023/03/19 05:57:46;;;;;;;12.80;7.75;;;;;;;8.90;100.00;97966.66;4957708;28;20086;-86
2023/03/19 06:00:14;;;;;;;13.80;7.22;;;;;;;9.05;100.00;97988.28;4958698;28;20026;-86
2023/03/19 06:02:41;;;;;;;13.10;7.68;;;;;;;8.94;97.11;97992.25;4958828;28;20042;-86
2023/03/19 06:05:10;;;;;;;11.07;7.25;;;;;;;9.05;99.45;98003.97;4966941;28;20023;-86
2023/03/19 06:07:36;;;;;;;10.23;7.55;;;;;;;9.11;100.00;98001.41;4954022;29;20058;-86
2023/03/19 06:10:05;;;;;;;10.68;7.13;;;;;;;9.18;99.32;98011.94;4951040;28;20078;-86
2023/03/19 06:12:31;;;;;;;10.55;7.68;;;;;;;9.25;100.00;98004.91;4953985;28;20038;-85
2023/03/19 06:14:58;;;;;;;9.13;7.53;;;;;;;9.29;100.00;98003.50;4950124;29;20035;-86
2023/03/19 06:17:24;;;;;;;8.93;6.65;;;;;;;9.46;100.00;98004.00;4968659;28;20054;-85
2023/03/19 06:19:50;;;;;;;9.40;7.75;;;;;;;9.52;99.48;98002.41;4963397;28;20071;-86
2023/03/19 06:22:17;;;;;;;9.90;6.97;;;;;;;9.66;100.00;98022.44;4956781;28;20483;-87
2023/03/19 06:24:43;;;;;;;9.63;7.03;;;;;;;9.61;100.00;97988.16;4973808;28;20049;-87
2023/03/19 06:27:12;;;;;;;7.50;6.70;;;;;;;9.85;100.00;98013.03;4957643;28;20034;-86
2023/03/19 06:29:38;;;;;;;9.52;7.15;;;;;;;9.92;100.00;98030.38;4955531;28;20050;-86
2023/03/19 06:32:05;;;;;;;12.48;7.75;;;;;;;9.84;100.00;98004.38;4957093;28;20051;-86
2023/03/19 06:34:31;;;;;;;11.00;7.43;;;;;;;9.91;100.00;97997.34;4956003;28;20034;-86
2023/03/19 06:36:57;;;;;;;10.15;7.10;;;;;;;9.86;97.44;98009.41;4967043;28;20059;-86
2023/03/19 06:39:23;;;;;;;11.00;7.88;;;;;;;10.07;99.20;98000.56;4951058;28;20043;-87
2023/03/19 06:41:50;;;;;;;10.45;7.43;;;;;;;10.28;99.54;98031.09;4956498;28;20530;-86
2023/03/19 06:44:16;;;;;;;8.18;7.35;;;;;;;10.39;97.01;98047.06;4965511;28;20540;-86
2023/03/19 06:46:43;;;;;;;8.75;7.10;;;;;;;10.24;96.37;98022.81;4973642;28;20494;-86
2023/03/19 06:49:09;;;;;;;10.93;7.65;;;;;;;10.39;98.28;98031.34;4954775;29;20042;-86
2023/03/19 06:51:36;;;;;;;9.75;8.20;;;;;;;10.35;95.75;98030.09;4954753;28;20098;-86
2023/03/19 06:54:02;;;;;;;10.98;7.95;;;;;;;10.29;95.12;98036.16;4973607;28;20453;-86
2023/03/19 06:56:28;;;;;;;9.57;7.68;;;;;;;10.22;96.78;98024.81;4970067;28;20075;-85
2023/03/19 06:58:55;;;;;;;10.68;8.02;;;;;;;10.09;96.10;98030.03;4956311;28;20055;-86
2023/03/19 07:01:21;;;;;;;11.40;7.97;;;;;;;9.91;95.39;98026.16;4974314;28;20058;-86
2023/03/19 07:03:48;;;;;;;11.05;8.65;;;;;;;9.87;98.56;98051.13;4956565;28;20034;-87
2023/03/19 07:06:14;;;;;;;12.95;9.07;;;;;;;9.84;98.52;98058.56;4968693;28;20066;-86
2023/03/19 07:08:45;;;;;;;11.40;8.40;;;;;;;9.87;100.00;98069.44;4964613;28;20031;-86
2023/03/19 07:11:12;;;;;;;10.20;8.70;;;;;;;9.89;100.00;98077.91;4974473;28;20039;-87
2023/03/19 07:13:39;;;;;;;12.10;8.80;;;;;;;9.85;100.00;98081.94;4973044;28;20030;-86
2023/03/19 07:16:06;;;;;;;13.85;9.20;;;;;;;9.89;100.00;98072.66;4976214;28;20067;-86
2023/03/19 07:18:32;;;;;;;13.23;9.02;;;;;;;9.72;100.00;98081.09;4974555;28;20556;-86
2023/03/19 07:20:58;;;;;;;11.57;9.10;;;;;;;9.87;100.00;98092.22;4953127;29;20031;-86
2023/03/19 07:23:24;;;;;;;13.38;9.40;;;;;;;9.57;100.00;98083.81;4956662;28;20146;-86
2023/03/19 07:25:51;;;;;;;11.20;8.95;;;;;;;9.69;100.00;98097.97;4973665;28;20055;-85
2023/03/19 07:28:17;;;;;;;11.15;8.52;;;;;;;10.01;100.00;98106.97;4973624;28;20046;-87
2023/03/19 07:30:43;;;;;;;13.02;8.20;;;;;;;10.20;100.00;98108.09;4955946;28;20054;-86
2023/03/19 07:33:10;;;;;;;10.07;7.65;;;;;;;10.26;100.00;98099.47;4972499;28;20038;-85
2023/03/19 07:35:36;;;;;;;10.85;8.05;;;;;;;10.39;100.00;98102.13;4959426;28;20059;-86
2023/03/19 07:38:02;;;;;;;10.10;7.97;;;;;;;10.49;100.00;98087.81;4955365;28;20082;-86
2023/03/19 07:40:29;;;;;;;13.70;8.32;;;;;;;10.40;97.79;98103.72;4962966;28;20062;-86
2023/03/19 07:42:55;;;;;;;12.80;8.88;;;;;;;10.43;99.52;98120.88;4953782;29;20507;-86
2023/03/19 07:45:22;;;;;;;10.75;8.95;;;;;;;10.36;100.00;98099.88;4968303;28;20037;-86
2023/03/19 07:47:50;;;;;;;11.55;8.95;;;;;;;10.52;100.00;98103.16;4973683;28;20035;-87
2023/03/19 07:50:16;;;;;;;11.48;9.30;;;;;;;10.60;100.00;98105.59;4953117;28;20035;-87
2023/03/19 07:52:50;;;;;;;12.32;8.70;;;;;;;10.83;100.00;98111.25;4955475;28;20050;-86
2023/03/19 07:55:16;;;;;;;12.50;8.57;;;;;;;10.91;100.00;98120.75;4936178;29;20466;-87
2023/03/19 07:57:43;;;;;;;12.05;8.23;;;;;;;10.97;100.00;98118.16;4978694;28;20046;-87
2023/03/19 08:00:10;;;;;;;10.40;8.43;;;;;;;11.17;100.00;98118.16;4941804;28;20038;-87
2023/03/19 08:02:36;;;;;;;12.63;8.52;;;;;;;11.21;100.00;98118.53;4939713;28;20038;-87
2023/03/19 08:05:06;;;;;;;13.10;9.25;;;;;;;11.19;98.98;98099.56;4955106;28;20054;-87
2023/03/19 08:07:33;;;;;;;11.77;9.38;;;;;;;11.15;96.22;98129.84;4950757;29;20059;-87
2023/03/19 08:09:59;;;;;;;12.18;9.05;;;;;;;11.05;98.54;98111.09;4953349;28;20038;-86
2023/03/19 08:12:25;;;;;;;10.43;8.43;;;;;;;11.22;100.00;98133.31;4962585;28;20506;-86
2023/03/19 08:14:52;;;;;;;11.57;8.48;;;;;;;11.31;100.00;98129.44;4964589;28;20035;-85
2023/03/19 08:17:18;;;;;;;11.35;8.75;;;;;;;11.38;100.00;98143.38;4968168;28;20074;-86
2023/03/19 08:19:45;;;;;;;12.32;10.13;;;;;;;11.43;100.00;98129.63;4972288;28;20043;-85
2023/03/19 08:22:11;;;;;;;11.65;8.65;;;;;;;11.56;100.00;98158.50;4970968;28;20027;-85
2023/03/19 08:24:38;;;;;;;11.35;8.98;;;;;;;11.55;100.00;98148.22;4971753;28;20062;-86
2023/03/19 08:27:04;;;;;;;13.13;9.05;;;;;;;11.53;100.00;98140.53;4954525;28;20526;-86
2023/03/19 08:29:30;;;;;;;11.05;8.45;;;;;;;11.43;100.00;98146.19;4972800;28;20131;-86
2023/03/19 08:31:57;;;;;;;10.02;8.70;;;;;;;11.44;100.00;98133.88;4954689;28;20077;-86
2023/03/19 08:34:23;;;;;;;11.75;8.35;;;;;;;11.43;100.00;98142.75;4959043;28;20067;-87
2023/03/19 08:36:50;;;;;;;9.95;8.10;;;;;;;11.49;100.00;98158.50;4951302;29;20070;-87
2023/03/19 08:39:16;;;;;;;12.52;8.35;;;;;;;11.50;100.00;98175.06;4970764;28;20065;-86
2023/03/19 08:41:42;;;;;;;11.90;9.00;;;;;;;11.48;100.00;98171.84;4955036;28;20575;-86
2023/03/19 08:44:09;;;;;;;11.40;8.45;;;;;;;11.26;100.00;98134.50;4953190;28;20035;-86
2023/03/19 08:46:35;;;;;;;11.32;8.52;;;;;;;11.37;100.00;98154.88;4956862;29;20031;-85
2023/03/19 08:49:01;;;;;;;10.90;8.30;;;;;;;11.38;100.00;98166.19;4971376;28;20075;-86
2023/03/19 08:51:31;;;;;;;10.98;8.85;;;;;;;11.37;100.00;98164.59;4948804;29;20043;-86
2023/03/19 08:53:57;;;;;;;10.75;8.45;;;;;;;11.33;100.00;98169.41;4957947;28;20034;-86
2023/03/19 08:56:23;;;;;;;11.93;8.52;;;;;;;11.37;100.00;98154.88;4942358;28;20089;-86
2023/03/19 08:58:49;;;;;;;10.82;8.25;;;;;;;11.46;100.00;98166.81;4958526;28;20069;-87
2023/03/19 09:01:16;;;;;;;11.02;8.13;;;;;;;11.61;100.00;98197.31;4976015;28;20035;-87
2023/03/19 09:03:44;;;;;;;9.55;7.63;;;;;;;11.46;100.00;98169.44;4958476;28;20035;-86
2023/03/19 09:06:13;;;;;;;10.88;7.68;;;;;;;11.61;100.00;98197.31;4958373;28;20030;-86
2023/03/19 09:08:40;;;;;;;8.82;6.97;;;;;;;11.51;100.00;98172.28;4974705;28;20101;-87
2023/03/19 09:11:09;;;;;;;10.98;7.70;;;;;;;11.70;100.00;98201.34;4958420;28;20042;-87
2023/03/19 09:13:36;;;;;;;8.00;7.13;;;;;;;11.74;100.00;98197.28;4965241;28;20475;-87
2023/03/19 09:16:03;;;;;;;8.80;7.25;;;;;;;11.68;100.00;98193.66;4966161;28;20394;-86
2023/03/19 09:18:29;;;;;;;8.38;6.07;;;;;;;11.70;100.00;98190.84;4941303;28;20027;-87
2023/03/19 09:20:56;;;;;;;8.45;6.63;;;;;;;11.79;100.00;98211.44;4957025;29;20050;-87
2023/03/19 09:23:22;;;;;;;9.65;7.38;;;;;;;11.63;100.00;98174.25;4953597;28;20038;-86
2023/03/19 09:25:50;;;;;;;9.25;6.40;;;;;;;11.63;100.00;98175.06;4975070;28;20050;-86
2023/03/19 09:28:17;;;;;;;8.10;6.75;;;;;;;11.82;100.00;98199.75;4975725;28;20062;-86
2023/03/19 09:30:48;;;;;;;9.57;6.68;;;;;;;11.90;100.00;98209.22;4950831;28;20507;-86
2023/03/19 09:33:17;;;;;;;8.00;6.20;;;;;;;11.86;100.00;98193.03;4963361;28;20098;-86
2023/03/19 09:35:51;;;;;;;7.63;6.03;;;;;;;11.87;100.00;98196.47;4970587;28;20071;-85
2023/03/19 09:38:21;;;;;;;8.00;5.80;;;;;;;11.92;100.00;98200.13;4956189;28;20093;-85
2023/03/19 09:41:00;;;;;;;7.65;5.68;;;;;;;11.93;100.00;98200.91;4968319;28;20034;-85
2023/03/19 09:43:41;;;;;;;11.75;6.85;;;;;;;11.96;100.00;98211.84;4948948;28;20066;-85
2023/03/19 09:46:31;;;;;;;12.45;7.13;;;;;;;11.97;100.00;98212.66;4962606;28;20035;-85
2023/03/19 09:49:10;;;;;;;8.38;7.07;;;;;;;11.98;100.00;98195.84;4956705;28;20097;-85
2023/03/19 09:51:52;;;;;;;9.45;6.18;;;;;;;12.09;100.00;98208.38;4966539;28;20499;-86
2023/03/19 09:54:31;;;;;;;10.50;5.15;;;;;;;12.17;100.00;98207.31;4938592;28;20443;-86
2023/03/19 09:56:58;;;;;;;7.05;5.22;;;;;;;12.18;100.00;98203.72;4956347;28;20114;-86
2023/03/19 09:59:27;;;;;;;5.95;5.35;;;;;;;12.28;100.00;98204.88;4974864;28;20059;-86
2023/03/19 10:02:18;;;;;;;5.55;5.00;;;;;;;12.31;100.00;98201.84;4938742;29;20035;-85
2023/03/19 10:05:10;;;;;;;6.80;5.03;;;;;;;12.51;100.00;98209.63;4973525;28;20051;-86
2023/03/19 10:08:05;;;;;;;6.38;4.20;;;;;;;12.54;100.00;98214.50;4963082;28;20035;-86
2023/03/19 10:11:37;;;;;;;6.80;4.30;;;;;;;12.45;100.00;98184.16;4970563;28;20127;-86
2023/03/19 10:14:42;;;;;;;6.18;4.22;;;;;;;12.55;100.00;98210.84;4946235;28;20035;-86
2023/03/19 10:17:22;;;;;;;6.45;4.68;;;;;;;12.35;100.00;98196.94;4956092;28;20141;-86
2023/03/19 10:20:09;;;;;;;5.18;4.40;;;;;;;12.54;100.00;98217.13;4956705;28;20594;-86
2023/03/19 10:22:48;;;;;;;5.50;4.30;;;;;;;12.76;100.00;98204.47;4973572;28;20034;-86
2023/03/19 10:25:21;;;;;;;7.78;5.47;;;;;;;12.76;100.00;98198.38;4966419;28;20051;-86
2023/03/19 10:28:00;;;;;;;7.28;6.07;;;;;;;12.97;100.00;98205.16;4941768;28;20086;-86
2023/03/19 10:30:32;;;;;;;8.18;6.38;;;;;;;12.82;100.00;98187.00;4961192;28;20031;-87
2023/03/19 10:33:27;;;;;;;9.20;7.40;;;;;;;13.01;100.00;98188.72;4972995;28;20530;-85
2023/03/19 10:36:05;;;;;;;8.02;5.88;;;;;;;13.10;100.00;98203.25;4956560;28;20070;-86
2023/03/19 10:38:32;;;;;;;8.45;6.68;;;;;;;13.01;100.00;98183.44;4971854;28;20402;-86
2023/03/19 10:41:19;;;;;;;8.82;6.35;;;;;;;13.20;100.00;98202.78;4941338;29;20043;-85
2023/03/19 10:44:01;;;;;;;7.05;6.15;;;;;;;13.10;100.00;98192.72;4969555;28;20034;-86
2023/03/19 10:46:35;;;;;;;7.30;5.85;;;;;;;13.05;100.00;98179.38;4971947;28;20050;-86
2023/03/19 10:49:01;;;;;;;6.65;5.95;;;;;;;13.06;100.00;98180.19;4954180;28;20063;-86
2023/03/19 10:51:28;;;;;;;5.82;5.22;;;;;;;13.21;100.00;98185.19;4965836;28;20034;-89
2023/03/19 10:53:56;;;;;;;6.93;6.15;;;;;;;13.33;100.00;98205.34;4939674;28;20047;-88
2023/03/19 10:56:32;;;;;;;6.03;5.43;;;;;;;13.31;100.00;98186.34;4988752;28;20051;-88
2023/03/19 10:59:33;;;;;;;6.93;5.95;;;;;;;13.45;100.00;98197.56;4974451;28;20054;-87
2023/03/19 11:02:18;;;;;;;5.88;5.15;;;;;;;13.52;100.00;98179.88;4937888;29;20509;-87
2023/03/19 11:04:46;;;;;;;5.00;4.50;;;;;;;13.66;100.00;98191.88;4961693;28;20041;-85
2023/03/19 11:07:19;;;;;;;4.70;4.07;;;;;;;13.85;100.00;98184.00;4971186;28;20448;-85
2023/03/19 11:09:49;;;;;;;6.80;4.38;;;;;;;13.80;100.00;98171.50;4973138;28;20116;-85
2023/03/19 11:12:32;;;;;;;4.50;4.10;;;;;;;13.91;100.00;98191.88;4973215;28;20050;-86
2023/03/19 11:15:02;;;;;;;4.85;3.90;;;;;;;13.97;100.00;98182.25;4960128;28;20066;-85
2023/03/19 11:17:36;;;;;;;5.75;4.45;;;;;;;14.08;100.00;98176.25;4971864;28;20105;-85
2023/03/19 11:20:34;;;;;;;5.28;4.57;;;;;;;14.23;100.00;98177.75;4972396;28;20042;-86
2023/03/19 11:23:06;;;;;;;5.63;4.32;;;;;;;14.33;100.00;98168.25;4921593;29;20042;-85
2023/03/19 11:25:40;;;;;;;4.13;3.70;;;;;;;14.43;100.00;98179.09;4951870;29;20063;-85
2023/03/19 11:28:13;;;;;;;5.50;3.70;;;;;;;14.59;100.00;98177.72;4964062;28;20070;-87
2023/03/19 11:30:59;;;;;;;4.55;3.80;;;;;;;14.54;100.00;98160.94;4947453;28;20422;-85
2023/03/19 11:34:11;;;;;;;4.65;3.67;;;;;;;14.94;100.00;98172.56;4954938;28;20125;-85
2023/03/19 11:36:56;;;;;;;4.70;3.75;;;;;;;15.08;100.00;98165.25;4957028;28;20509;-86
2023/03/19 11:40:17;;;;;;;4.43;3.50;;;;;;;15.10;100.00;98160.53;4973180;28;20086;-87
2023/03/19 11:43:27;;;;;;;3.97;3.58;;;;;;;15.08;100.00;98154.69;4967398;28;20054;-87
2023/03/19 11:46:18;;;;;;;5.27;3.10;;;;;;;15.08;100.00;98152.03;4972133;28;20046;-87